Time;durP1;ratioP1;P1;durP2;ratioP2;P2;SDS_P1;SDS_P2;PMS_P1;PMS_P2;Temp;Humidity;BMP_temperature;BMP_pressure;BME280_temperature;BME280_humidity;BME280_pressure;Samples;Min_cycle;Max_cycle;Signal;HPM_P1;HPM_P2
2023/10/10 00:01:43;;;;;;;8.80;5.07;;;;;;;;;;5034043;28;20414;-69
2023/10/10 00:04:11;;;;;;;17.83;4.70;;;;;;;;;;5033828;28;20433;-69
2023/10/10 00:06:38;;;;;;;6.80;3.73;;;12.80;48.30;;;;;;5033629;28;20443;-69
2023/10/10 00:09:07;;;;;;;14.23;5.37;;;12.80;49.50;;;;;;5033790;28;20438;-69
2023/10/10 00:11:32;;;;;;;12.90;4.70;;;12.80;49.20;;;;;;5033724;28;20413;-69
2023/10/10 00:14:17;;;;;;;8.83;4.13;;;12.70;49.40;;;;;;5033215;28;20419;-69
2023/10/10 00:16:43;;;;;;;8.30;4.13;;;12.70;50.20;;;;;;5033515;28;20206;-69
2023/10/10 00:19:19;;;;;;;9.07;4.50;;;12.60;49.90;;;;;;5033591;28;20453;-69
2023/10/10 00:21:46;;;;;;;5.77;3.60;;;12.60;50.30;;;;;;5033656;28;20410;-69
2023/10/10 00:24:14;;;;;;;6.47;4.10;;;12.60;50.30;;;;;;5033914;28;20901;-69
2023/10/10 00:26:43;;;;;;;7.47;4.10;;;12.60;50.50;;;;;;5033278;28;20425;-69
2023/10/10 00:29:09;;;;;;;12.97;5.30;;;12.60;50.60;;;;;;5033395;28;20855;-69
2023/10/10 00:31:38;;;;;;;9.50;5.10;;;12.50;51.10;;;;;;5033502;28;20552;-69
2023/10/10 00:34:07;;;;;;;9.17;3.57;;;12.50;51.40;;;;;;5033422;28;20493;-69
2023/10/10 00:36:36;;;;;;;8.03;4.50;;;12.50;51.10;;;;;;5033037;28;20470;-69
2023/10/10 00:41:51;;;;;;;14.43;4.90;;;12.40;51.80;;;;;;5033417;28;20450;-69
2023/10/10 00:44:18;;;;;;;16.80;5.90;;;12.40;52.00;;;;;;5033427;28;20467;-69
2023/10/10 00:46:55;;;;;;;7.57;5.37;;;12.40;52.40;;;;;;5033001;28;20450;-69
2023/10/10 00:49:31;;;;;;;13.37;5.67;;;12.30;53.40;;;;;;5033114;28;20833;-69
2023/10/10 00:52:06;;;;;;;12.00;5.67;;;12.30;53.40;;;;;;5033121;28;20418;-69
2023/10/10 00:54:40;;;;;;;12.40;5.60;;;12.30;53.40;;;;;;5048360;28;20444;-69
2023/10/10 00:57:08;;;;;;;10.70;4.47;;;12.30;53.40;;;;;;5032974;28;20987;-69
2023/10/10 00:59:43;;;;;;;11.67;6.10;;;12.20;53.30;;;;;;5032845;28;20441;-69
2023/10/10 01:02:13;;;;;;;9.00;6.90;;;12.30;53.40;;;;;;5032954;28;20390;-69
2023/10/10 01:04:55;;;;;;;8.13;6.27;;;12.20;52.70;;;;;;5032746;28;20394;-69
2023/10/10 01:07:23;;;;;;;12.07;7.10;;;12.10;53.90;;;;;;5032674;28;20405;-69
2023/10/10 01:10:07;;;;;;;15.77;7.33;;;12.00;55.00;;;;;;5032673;28;20856;-69
2023/10/10 01:12:35;;;;;;;12.93;8.97;;;12.00;54.30;;;;;;5032703;28;20402;-69
2023/10/10 01:15:08;;;;;;;17.13;7.80;;;12.00;55.30;;;;;;5032430;28;20450;-69
2023/10/10 01:17:34;;;;;;;16.60;7.60;;;12.00;56.30;;;;;;5032557;28;20413;-69
2023/10/10 01:20:33;;;;;;;11.30;5.90;;;12.00;55.40;;;;;;5032347;28;20509;-69
2023/10/10 01:23:00;;;;;;;10.10;5.33;;;12.00;55.00;;;;;;5032553;28;20406;-69
2023/10/10 01:28:03;;;;;;;14.40;6.33;;;11.90;56.00;;;;;;5032390;28;20769;-69
2023/10/10 01:33:14;;;;;;;9.13;5.93;;;11.90;56.60;;;;;;5032263;28;20505;-69
2023/10/10 01:35:41;;;;;;;7.43;4.47;;;11.90;57.00;;;;;;5032026;28;20531;-69
2023/10/10 01:38:30;;;;;;;12.70;5.53;;;11.90;57.60;;;;;;5032147;28;20512;-69
2023/10/10 01:40:55;;;;;;;12.63;5.00;;;11.90;57.50;;;;;;5032139;28;20408;-69
2023/10/10 01:43:21;;;;;;;9.90;4.87;;;11.90;57.50;;;;;;5047286;28;20418;-69
2023/10/10 01:46:08;;;;;;;9.40;4.57;;;11.90;56.90;;;;;;5031878;28;20236;-69
2023/10/10 01:48:32;;;;;;;7.33;4.73;;;11.80;57.10;;;;;;5031639;28;20207;-69
2023/10/10 01:50:58;;;;;;;10.60;4.40;;;11.90;56.70;;;;;;5031947;28;20429;-69
2023/10/10 01:53:23;;;;;;;10.50;5.37;;;11.80;57.80;;;;;;5031855;28;20497;-69
2023/10/10 01:55:50;;;;;;;9.90;4.67;;;11.80;58.40;;;;;;5031678;28;20282;-69
2023/10/10 01:58:19;;;;;;;8.10;4.03;;;11.80;58.60;;;;;;5031810;28;20240;-69
2023/10/10 02:00:46;;;;;;;4.70;3.13;;;11.80;58.60;;;;;;5031794;28;20413;-69
2023/10/10 02:03:12;;;;;;;7.13;4.60;;;11.80;58.70;;;;;;5031678;28;20780;-69
2023/10/10 02:08:09;;;;;;;16.20;4.30;;;11.80;57.90;;;;;;5031684;28;20190;-69
2023/10/10 02:10:46;;;;;;;16.17;5.27;;;11.80;57.90;;;;;;5031750;28;20170;-69
2023/10/10 02:13:12;;;;;;;9.17;4.20;;;11.80;57.80;;;;;;5031642;28;20799;-69
2023/10/10 02:15:39;;;;;;;10.03;4.63;;;11.80;57.20;;;;;;5031200;28;20472;-69
2023/10/10 02:18:13;;;;;;;7.43;3.70;;;11.80;56.20;;;;;;5032083;28;20820;-69
2023/10/10 02:23:24;;;;;;;12.00;4.70;;;11.80;56.90;;;;;;5032526;28;20479;-69
2023/10/10 02:25:55;;;;;;;12.67;4.70;;;11.80;56.60;;;;;;5032272;28;20417;-69
2023/10/10 02:28:27;;;;;;;9.47;4.83;;;11.80;57.70;;;;;;5032276;28;20812;-69
2023/10/10 02:30:53;;;;;;;9.10;4.80;;;11.70;57.80;;;;;;5032272;28;20420;-69
2023/10/10 02:33:30;;;;;;;14.13;5.13;;;11.70;56.70;;;;;;5032924;28;20497;-69
2023/10/10 02:35:56;;;;;;;14.50;4.30;;;11.60;56.80;;;;;;5051253;28;20487;-69
2023/10/10 02:38:23;;;;;;;7.00;3.30;;;11.60;56.70;;;;;;5051035;28;20469;-70
2023/10/10 02:40:55;;;;;;;12.00;4.33;;;11.60;57.00;;;;;;5036063;28;20667;-69
2023/10/10 02:43:45;;;;;;;8.13;3.93;;;11.70;57.80;;;;;;5035670;28;20418;-69
2023/10/10 02:46:17;;;;;;;16.23;4.67;;;11.70;57.80;;;;;;5050684;28;20537;-69
2023/10/10 02:48:44;;;;;;;8.10;4.60;;;11.60;57.80;;;;;;5035188;28;20794;-70
2023/10/10 02:51:15;;;;;;;13.73;3.93;;;11.60;59.00;;;;;;5035028;28;20917;-69
2023/10/10 02:53:46;;;;;;;8.77;5.23;;;11.60;58.40;;;;;;5035010;28;20441;-70
2023/10/10 02:56:20;;;;;;;9.47;4.10;;;11.50;59.50;;;;;;5035424;28;20469;-69
2023/10/10 02:58:48;;;;;;;12.83;5.03;;;11.50;58.90;;;;;;5035611;28;20476;-70
2023/10/10 03:04:08;;;;;;;9.23;4.57;;;11.60;59.40;;;;;;5026621;28;20809;-69
2023/10/10 03:06:34;;;;;;;8.53;4.10;;;11.50;59.10;;;;;;5034998;28;20520;-69
2023/10/10 03:11:53;;;;;;;7.23;4.63;;;11.50;59.20;;;;;;5035460;28;20464;-69
2023/10/10 03:14:28;;;;;;;10.07;4.50;;;11.50;60.00;;;;;;5036050;28;20502;-69
2023/10/10 03:17:05;;;;;;;11.37;5.27;;;11.40;61.40;;;;;;5036028;28;20574;-69
2023/10/10 03:19:38;;;;;;;12.30;4.87;;;11.40;60.60;;;;;;5035519;28;20719;-69
2023/10/10 03:22:28;;;;;;;11.13;3.80;;;11.30;60.70;;;;;;5034019;28;20897;-69
2023/10/10 03:25:20;;;;;;;11.87;4.63;;;11.30;59.90;;;;;;5032468;28;20425;-69
2023/10/10 03:28:05;;;;;;;10.90;4.40;;;11.30;60.20;;;;;;5033060;28;20931;-69
2023/10/10 03:33:09;;;;;;;7.60;3.73;;;11.20;61.30;;;;;;5031982;28;20422;-69
2023/10/10 03:35:58;;;;;;;7.90;4.07;;;11.20;61.40;;;;;;5031655;28;20473;-69
2023/10/10 03:39:15;;;;;;;10.13;3.87;;;11.20;61.30;;;;;;5031856;28;20815;-69
2023/10/10 05:25:14;;;;;;;12.07;5.07;;;;;;;;;;5035726;28;20409;-66
2023/10/10 05:27:43;;;;;;;9.67;4.07;;;;;;;;;;5035370;28;20409;-67
2023/10/10 05:30:23;;;;;;;11.60;4.13;;;;;;;;;;5035847;28;20452;-67
2023/10/10 05:33:02;;;;;;;12.00;4.83;;;;;;;;;;5035068;28;20461;-67
2023/10/10 05:35:29;;;;;;;17.53;5.27;;;;;;;;;;5035547;28;20487;-66
2023/10/10 05:37:55;;;;;;;12.03;5.60;;;;;;;;;;5035954;28;20432;-67
2023/10/10 05:40:24;;;;;;;14.83;5.60;;;;;;;;;;5035302;28;20413;-67
2023/10/10 05:42:51;;;;;;;6.00;3.80;;;;;;;;;;5034462;28;20401;-67
2023/10/10 05:45:18;;;;;;;13.83;5.53;;;;;;;;;;5033712;28;20525;-69
2023/10/10 05:47:44;;;;;;;13.10;4.83;;;;;;;;;;5034362;28;20923;-69
2023/10/10 05:50:10;;;;;;;8.67;4.47;;;;;;;;;;5035705;28;20416;-68
2023/10/10 05:52:40;;;;;;;14.27;5.90;;;;;;;;;;5036153;28;20962;-68
2023/10/10 05:55:10;;;;;;;8.50;5.30;;;;;;;;;;5035679;28;20410;-69
2023/10/10 05:57:36;;;;;;;14.67;5.83;;;;;;;;;;5036190;28;20424;-68
2023/10/10 06:00:05;;;;;;;7.53;4.30;;;;;;;;;;5034658;28;20443;-68
2023/10/10 06:02:31;;;;;;;5.87;4.40;;;;;;;;;;5035635;28;20409;-68
2023/10/10 06:04:57;;;;;;;7.53;5.03;;;;;;;;;;5035013;28;20466;-69
2023/10/10 06:07:23;;;;;;;7.23;4.30;;;;;;;;;;5035132;28;20463;-69
2023/10/10 06:09:51;;;;;;;10.63;5.90;;;;;;;;;;5035913;28;20776;-69
2023/10/10 06:12:19;;;;;;;8.60;4.63;;;;;;;;;;5035302;28;20444;-69
2023/10/10 06:14:46;;;;;;;10.17;6.20;;;;;;;;;;5034155;28;20508;-68
2023/10/10 06:17:13;;;;;;;10.90;4.60;;;;;;;;;;5033641;28;20497;-67
2023/10/10 06:19:39;;;;;;;8.63;4.50;;;;;;;;;;5034027;28;20465;-68
2023/10/10 06:22:08;;;;;;;10.27;4.40;;;;;;;;;;5034437;28;20398;-66
2023/10/10 06:24:35;;;;;;;6.63;4.53;;;;;;;;;;5035041;28;20402;-68
2023/10/10 06:27:01;;;;;;;14.70;6.10;;;;;;;;;;5034644;28;20421;-69
2023/10/10 06:29:34;;;;;;;13.60;6.60;;;;;;;;;;5035074;28;20430;-68
2023/10/10 06:32:00;;;;;;;9.73;4.60;;;;;;;;;;5048581;28;20445;-69
2023/10/10 06:34:34;;;;;;;7.57;4.67;;;;;;;;;;5035242;28;20412;-68
2023/10/10 06:37:07;;;;;;;8.10;4.93;;;;;;;;;;5031769;28;20476;-69
2023/10/10 06:39:33;;;;;;;10.90;5.83;;;;;;;;;;5033286;28;20443;-68
2023/10/10 06:42:00;;;;;;;10.20;4.70;;;;;;;;;;5014876;28;20494;-69
2023/10/10 06:44:32;;;;;;;6.90;4.63;;;;;;;;;;5047235;28;20430;-66
2023/10/10 06:46:59;;;;;;;11.33;6.00;;;;;;;;;;5034121;28;20452;-66
2023/10/10 06:49:25;;;;;;;7.83;4.83;;;;;;;;;;5033936;28;20457;-66
2023/10/10 06:51:55;;;;;;;9.27;4.93;;;;;;;;;;5033829;28;20407;-66
2023/10/10 06:54:34;;;;;;;7.60;4.63;;;;;;;;;;5034022;28;20407;-69
2023/10/10 06:59:27;;;;;;;12.00;4.27;;;;;;;;;;5014131;28;20433;-68
2023/10/10 07:01:53;;;;;;;10.50;5.27;;;;;;;;;;5028970;28;20997;-68
2023/10/10 07:04:19;;;;;;;10.27;5.67;;;;;;;;;;5013837;28;20499;-67
2023/10/10 07:06:47;;;;;;;10.10;4.80;;;;;;;;;;5013392;28;20474;-68
2023/10/10 07:09:28;;;;;;;17.00;5.50;;;;;;;;;;5013209;28;20483;-68
2023/10/10 07:11:55;;;;;;;12.33;5.37;;;;;;;;;;5013985;28;20413;-67
2023/10/10 07:14:20;;;;;;;9.50;5.90;;;;;;;;;;5012793;28;20454;-68
2023/10/10 07:16:46;;;;;;;13.73;6.40;;;;;;;;;;5013156;28;20465;-68
2023/10/10 07:19:29;;;;;;;8.87;6.07;;;;;;;;;;5013259;28;20453;-67
2023/10/10 07:21:55;;;;;;;21.43;6.63;;;;;;;;;;5013096;28;20450;-68
2023/10/10 07:24:28;;;;;;;11.67;4.60;;;;;;;;;;5014907;28;20410;-69
2023/10/10 07:27:10;;;;;;;9.47;5.43;;;;;;;;;;5016341;28;20439;-68
2023/10/10 07:32:18;;;;;;;13.70;7.03;;;;;;;;;;5016548;28;20446;-68
2023/10/10 07:34:49;;;;;;;14.70;5.63;;;;;;;;;;5016426;28;20410;-68
2023/10/10 07:37:16;;;;;;;15.10;5.57;;;;;;;;;;5023133;28;20474;-68
2023/10/10 07:42:29;;;;;;;11.63;6.43;;;;;;;;;;5019673;28;20776;-68
2023/10/10 07:44:55;;;;;;;14.23;5.00;;;;;;;;;;5016739;28;20410;-67
2023/10/10 07:47:27;;;;;;;9.90;4.77;;;;;;;;;;5035696;28;20487;-68
2023/10/10 07:49:59;;;;;;;13.63;5.70;;;;;;;;;;5035721;28;20429;-68
2023/10/10 07:52:25;;;;;;;16.73;7.10;;;;;;;;;;5035124;28;20452;-68
2023/10/10 07:54:52;;;;;;;10.47;6.30;;;;;;;;;;5035751;28;20786;-68
2023/10/10 07:57:22;;;;;;;9.03;6.03;;;;;;;;;;5034948;28;20980;-68
2023/10/10 07:59:49;;;;;;;8.90;5.67;;;;;;;;;;5031708;28;20453;-68
2023/10/10 08:02:34;;;;;;;11.23;6.17;;;;;;;;;;5026651;28;20476;-68
2023/10/10 08:05:09;;;;;;;11.17;5.00;;;;;;;;;;5035227;28;20500;-68
2023/10/10 08:07:35;;;;;;;15.07;5.63;;;;;;;;;;5014704;28;20411;-68
2023/10/10 08:10:14;;;;;;;11.40;5.87;;;;;;;;;;5015173;28;20443;-67
2023/10/10 08:12:41;;;;;;;11.50;5.73;;;;;;;;;;5015421;28;20415;-68
2023/10/10 08:15:19;;;;;;;9.30;5.40;;;;;;;;;;5014966;28;20407;-68
2023/10/10 08:17:54;;;;;;;7.77;5.10;;;;;;;;;;5014919;28;20426;-68
2023/10/10 08:23:06;;;;;;;12.77;5.23;;;;;;;;;;5014203;28;20401;-68
2023/10/10 08:25:33;;;;;;;18.43;5.50;;;;;;;;;;5013995;28;20914;-69
2023/10/10 08:27:59;;;;;;;7.47;4.50;;;;;;;;;;5013974;28;20405;-68
2023/10/10 08:30:26;;;;;;;9.77;5.10;;;;;;;;;;5013736;28;20430;-69
2023/10/10 08:32:55;;;;;;;9.40;4.70;;;;;;;;;;5050452;28;20502;-69
2023/10/10 08:35:22;;;;;;;10.77;5.00;;;;;;;;;;5051623;28;20572;-68
2023/10/10 08:37:49;;;;;;;11.07;5.40;;;;;;;;;;5053213;28;20413;-68
2023/10/10 08:40:19;;;;;;;15.40;6.30;;;;;;;;;;5053306;28;21009;-69
2023/10/10 08:42:46;;;;;;;7.63;5.20;;;;;;;;;;5053170;28;20421;-69
2023/10/10 08:45:22;;;;;;;12.10;5.30;;;;;;;;;;5053013;28;20456;-69
2023/10/10 08:47:49;;;;;;;10.13;5.90;;;;;;;;;;5053301;28;20405;-68
2023/10/10 08:50:16;;;;;;;9.17;5.93;;;;;;;;;;5037472;28;20964;-71
2023/10/10 08:52:42;;;;;;;6.70;4.23;;;;;;;;;;5032716;28;20500;-70
2023/10/10 08:55:13;;;;;;;7.87;4.03;;;;;;;;;;5030821;28;20472;-70
2023/10/10 08:57:39;;;;;;;13.70;5.47;;;;;;;;;;5033206;28;20434;-70
2023/10/10 09:00:11;;;;;;;12.43;5.63;;;;;;;;;;5032772;28;20461;-70
2023/10/10 09:02:39;;;;;;;17.77;5.50;;;;;;;;;;5031518;28;20430;-70
2023/10/10 09:05:06;;;;;;;6.17;3.97;;;;;;;;;;5031270;28;20454;-70
2023/10/10 09:07:32;;;;;;;9.83;5.33;;;;;;;;;;5032874;28;20418;-70
2023/10/10 09:10:04;;;;;;;7.23;4.63;;;;;;;;;;5032786;28;20790;-70
2023/10/10 09:12:34;;;;;;;9.97;4.50;;;;;;;;;;5033013;28;20417;-70
2023/10/10 09:15:16;;;;;;;10.80;6.77;;;;;;;;;;5032918;28;20402;-70
2023/10/10 09:17:45;;;;;;;8.70;6.00;;;;;;;;;;5031626;28;20418;-71
2023/10/10 09:20:32;;;;;;;10.63;5.70;;;;;;;;;;5032691;28;20488;-70
2023/10/10 09:23:21;;;;;;;14.63;7.10;;;;;;;;;;5032344;28;20444;-71
2023/10/10 09:25:48;;;;;;;9.83;7.23;;;;;;;;;;5032133;28;20649;-71
2023/10/10 09:28:16;;;;;;;12.70;6.27;;;;;;;;;;5032732;28;21041;-71
2023/10/10 09:30:49;;;;;;;12.33;7.03;;;;;;;;;;5032799;28;20493;-71
2023/10/10 09:35:53;;;;;;;15.00;7.07;;;;;;;;;;5032613;28;21034;-71
2023/10/10 09:38:21;;;;;;;10.43;5.67;;;;;;;;;;5032499;28;20893;-71
2023/10/10 09:40:48;;;;;;;14.00;7.10;;;;;;;;;;5032473;28;20409;-71
2023/10/10 09:43:35;;;;;;;10.93;6.00;;;;;;;;;;5032477;28;20488;-71
2023/10/10 09:46:18;;;;;;;10.40;6.83;;;;;;;;;;5031619;28;20485;-71
2023/10/10 09:54:15;;;;;;;14.60;5.47;;;;;;;;;;5032283;28;20476;-71
2023/10/10 09:56:43;;;;;;;11.37;5.50;;;;;;;;;;5032091;28;20496;-71
2023/10/10 09:59:10;;;;;;;10.17;5.10;;;;;;;;;;5032094;28;20430;-71
2023/10/10 10:01:44;;;;;;;8.97;5.33;;;;;;;;;;5032202;28;20449;-71
2023/10/10 10:04:18;;;;;;;7.40;5.97;;;;;;;;;;5030807;28;20440;-71
2023/10/10 10:07:12;;;;;;;7.20;5.70;;;;;;;;;;5030685;28;20425;-71
2023/10/10 10:09:57;;;;;;;15.97;7.43;;;;;;;;;;5030793;28;20469;-71
2023/10/10 10:12:35;;;;;;;19.77;6.03;;;;;;;;;;5030719;28;20513;-71
2023/10/10 10:15:07;;;;;;;8.53;5.07;;;;;;;;;;5031816;28;20413;-71
2023/10/10 10:17:53;;;;;;;14.80;7.50;;;;;;;;;;5030214;28;20464;-71
2023/10/10 10:20:23;;;;;;;8.50;4.23;;;;;;;;;;5031724;28;20454;-72
2023/10/10 10:22:59;;;;;;;11.83;5.97;;;;;;;;;;5031857;28;20493;-71
2023/10/10 10:25:25;;;;;;;9.30;4.63;;;;;;;;;;5031710;28;20414;-71
2023/10/10 10:28:00;;;;;;;8.57;5.40;;;;;;;;;;5031198;28;20429;-72
2023/10/10 10:32:58;;;;;;;8.63;5.23;;;;;;;;;;5032170;28;20450;-71
2023/10/10 10:35:47;;;;;;;8.00;5.27;;;;;;;;;;5031815;28;20828;-71
2023/10/10 10:38:13;;;;;;;12.70;6.83;;;;;;;;;;5030549;28;20414;-71
2023/10/10 10:43:14;;;;;;;10.13;6.03;;;;;;;;;;5033962;28;20465;-72
2023/10/10 10:46:07;;;;;;;11.53;5.80;;;;;;;;;;5032545;28;20790;-72
2023/10/10 10:48:36;;;;;;;11.83;5.87;;;;;;;;;;5033085;28;20441;-72
2023/10/10 10:51:23;;;;;;;6.90;5.50;;;;;;;;;;5032520;28;20484;-72
2023/10/10 10:54:02;;;;;;;8.83;5.90;;;;;;;;;;5032407;28;20421;-72
2023/10/10 10:59:13;;;;;;;9.67;5.17;;;;;;;;;;5036035;28;20499;-72
2023/10/10 11:01:57;;;;;;;9.53;5.67;;;;;;;;;;5036624;28;20412;-72
2023/10/10 11:04:40;;;;;;;19.33;6.07;;;;;;;;;;5036313;28;20410;-72
2023/10/10 11:07:14;;;;;;;11.07;6.10;;;;;;;;;;5034796;28;21010;-72
2023/10/10 11:09:52;;;;;;;8.40;4.90;;;;;;;;;;5035970;28;20439;-72
2023/10/10 11:12:21;;;;;;;8.07;5.67;;;;;;;;;;5035979;28;20418;-72
2023/10/10 11:14:49;;;;;;;19.27;5.90;;;;;;;;;;5035851;28;20430;-72
2023/10/10 11:17:19;;;;;;;21.83;6.87;;;;;;;;;;5035102;28;20469;-72
2023/10/10 11:19:54;;;;;;;6.43;4.97;;;;;;;;;;5035306;28;20453;-72
2023/10/10 11:22:39;;;;;;;10.07;4.73;;;;;;;;;;5035513;28;20512;-72
2023/10/10 11:25:05;;;;;;;12.50;5.23;;;;;;;;;;5035119;28;20402;-72
2023/10/10 11:27:44;;;;;;;13.47;6.30;;;;;;;;;;5035134;28;20441;-72
2023/10/10 11:30:11;;;;;;;19.53;7.10;;;;;;;;;;5035714;28;20492;-71
2023/10/10 11:32:46;;;;;;;11.60;6.60;;;;;;;;;;5035298;28;20402;-72
2023/10/10 11:37:48;;;;;;;9.73;5.20;;;;;;;;;;5035718;28;20468;-72
2023/10/10 11:42:54;;;;;;;13.23;5.90;;;;;;;;;;5035734;28;20459;-72
2023/10/10 11:45:25;;;;;;;11.70;5.70;;;;;;;;;;5035324;28;20900;-72
2023/10/10 11:47:52;;;;;;;9.40;4.23;;;;;;;;;;5035135;28;20468;-72
2023/10/10 11:50:22;;;;;;;9.57;5.60;;;;;;;;;;5034693;28;20466;-71
2023/10/10 11:52:56;;;;;;;8.27;5.60;;;;;;;;;;5033451;28;20817;-71
2023/10/10 11:55:22;;;;;;;9.13;6.43;;;;;;;;;;5034766;28;20433;-71
2023/10/10 11:57:51;;;;;;;12.10;5.47;;;;;;;;;;5035209;28;20417;-71
2023/10/10 12:00:36;;;;;;;11.00;6.97;;;;;;;;;;5034558;28;20430;-71
2023/10/10 12:03:05;;;;;;;7.90;4.70;;;;;;;;;;5034716;28;20777;-71
2023/10/10 12:08:01;;;;;;;8.10;5.43;;;;;;;;;;5034901;28;20417;-71
2023/10/10 12:10:52;;;;;;;8.67;5.17;;;;;;;;;;5033979;28;20441;-71
2023/10/10 12:13:35;;;;;;;15.97;5.50;;;;;;;;;;5034038;28;21115;-71
2023/10/10 12:16:07;;;;;;;7.20;5.60;;;;;;;;;;5034181;28;20553;-71
2023/10/10 12:18:33;;;;;;;9.63;6.43;;;;;;;;;;5030132;28;20456;-71
2023/10/10 12:21:03;;;;;;;7.60;4.47;;;;;;;;;;5029542;28;20792;-71
2023/10/10 12:23:30;;;;;;;8.17;5.13;;;;;;;;;;5031068;28;20442;-71
2023/10/10 12:25:56;;;;;;;8.17;5.90;;;;;;;;;;5029898;28;20472;-68
2023/10/10 12:28:22;;;;;;;13.37;5.07;;;;;;;;;;5034087;28;20770;-70
2023/10/10 12:30:48;;;;;;;9.70;6.57;;;;;;;;;;5018062;28;20497;-70
2023/10/10 12:33:16;;;;;;;9.87;5.83;;;;;;;;;;5014364;28;20446;-70
2023/10/10 12:35:48;;;;;;;7.07;4.87;;;;;;;;;;5013941;28;20486;-70
2023/10/10 12:38:23;;;;;;;5.63;5.13;;;;;;;;;;5013942;28;20469;-70
2023/10/10 12:40:52;;;;;;;11.03;5.40;;;;;;;;;;5014105;28;20783;-70
2023/10/10 12:43:19;;;;;;;8.87;5.80;;;;;;;;;;5032551;28;20421;-70
2023/10/10 12:45:45;;;;;;;9.97;6.60;;;;;;;;;;5033493;28;20425;-70
2023/10/10 12:48:20;;;;;;;9.90;5.47;;;;;;;;;;5033589;28;20444;-70
2023/10/10 12:50:46;;;;;;;9.40;5.67;;;;;;;;;;5032315;28;20422;-70
2023/10/10 12:53:15;;;;;;;7.17;5.37;;;;;;;;;;5034016;28;20422;-70
2023/10/10 12:55:55;;;;;;;11.73;6.90;;;;;;;;;;5033297;28;20454;-70
2023/10/10 12:58:22;;;;;;;9.27;6.77;;;;;;;;;;5033459;28;20409;-71
2023/10/10 13:00:52;;;;;;;8.70;5.43;;;;;;;;;;5033345;28;20833;-70
2023/10/10 13:03:29;;;;;;;5.73;5.13;;;;;;;;;;5033305;28;20958;-69
2023/10/10 13:05:59;;;;;;;5.30;4.80;;;;;;;;;;5033344;28;20424;-70
2023/10/10 13:08:39;;;;;;;13.20;6.83;;;;;;;;;;5033256;28;20418;-70
2023/10/10 13:11:12;;;;;;;9.80;5.30;;;;;;;;;;5033581;28;20440;-70
2023/10/10 13:13:45;;;;;;;9.80;5.30;;;;;;;;;;5032962;28;20414;-70
2023/10/10 13:18:57;;;;;;;12.20;6.00;;;;;;;;;;5032901;28;20500;-70
2023/10/10 13:21:26;;;;;;;9.20;5.87;;;;;;;;;;5030640;28;20720;-70
2023/10/10 13:23:53;;;;;;;9.70;5.40;;;;;;;;;;5032973;28;20407;-70
2023/10/10 13:26:23;;;;;;;11.60;5.23;;;;;;;;;;5032813;28;20409;-70
2023/10/10 13:28:49;;;;;;;7.23;5.83;;;;;;;;;;5031684;28;20957;-70
2023/10/10 13:31:19;;;;;;;10.17;6.60;;;;;;;;;;5032718;28;20868;-70
2023/10/10 13:33:45;;;;;;;16.93;7.30;;;;;;;;;;5032638;28;20414;-71
2023/10/10 13:36:12;;;;;;;10.03;5.90;;;;;;;;;;5032338;28;20461;-70
2023/10/10 13:38:49;;;;;;;8.93;5.93;;;;;;;;;;5032671;28;20475;-70
2023/10/10 13:41:18;;;;;;;10.13;6.33;;;;;;;;;;5032668;28;20953;-70
2023/10/10 13:43:52;;;;;;;7.17;5.33;;;;;;;;;;5109749;27;20519;-69
2023/10/10 13:46:19;;;;;;;6.83;5.50;;;;;;;;;;5109383;28;20420;-69
2023/10/10 13:48:46;;;;;;;9.33;6.60;;;;;;;;;;5109613;28;20437;-70
2023/10/10 13:51:15;;;;;;;6.40;5.80;;;;;;;;;;5109588;28;20399;-69
2023/10/10 13:53:43;;;;;;;10.37;7.27;;;;;;;;;;5109517;28;20399;-69
2023/10/10 13:56:10;;;;;;;6.30;5.23;;;;;;;;;;5124014;22;20407;-67
2023/10/10 13:58:37;;;;;;;15.17;5.83;;;;;;;;;;5029081;28;20850;-69
2023/10/10 14:01:25;;;;;;;8.80;5.87;;;;;;;;;;5028958;28;20405;-68
2023/10/10 14:04:04;;;;;;;11.20;5.70;;;;;;;;;;5028915;28;20469;-69
2023/10/10 14:06:45;;;;;;;5.57;5.07;;;;;;;;;;5023622;28;20431;-69
2023/10/10 14:09:11;;;;;;;7.97;5.50;;;;;;;;;;5008077;28;20434;-68
2023/10/10 14:11:38;;;;;;;9.87;5.60;;;;;;;;;;5009315;28;20446;-69
2023/10/10 14:14:08;;;;;;;8.60;5.57;;;;;;;;;;5009084;28;20399;-68
2023/10/10 14:16:34;;;;;;;5.90;5.30;;;;;;;;;;5009580;28;20415;-73
2023/10/10 14:19:01;;;;;;;8.33;5.20;;;;;;;;;;5004517;28;20931;-69
2023/10/10 14:21:27;;;;;;;10.43;4.70;;;;;;;;;;4988267;28;20921;-68
2023/10/10 14:24:04;;;;;;;17.33;6.17;;;;;;;;;;4988452;28;20835;-69
2023/10/10 14:26:33;;;;;;;1179.03;395.10;;;;;;;;;;4989087;28;20490;-69
2023/10/10 14:29:04;;;;;;;483.07;121.80;;;;;;;;;;4988505;28;20413;-68
2023/10/10 14:31:33;;;;;;;19.70;9.60;;;;;;;;;;4989249;28;20411;-68
2023/10/10 14:34:00;;;;;;;183.63;51.60;;;;;;;;;;4989094;28;20427;-69
2023/10/10 14:36:27;;;;;;;26.53;12.20;;;;;;;;;;4987353;28;20726;-69
2023/10/10 14:38:53;;;;;;;19.27;9.03;;;;;;;;;;4988979;28;20412;-70
2023/10/10 14:41:20;;;;;;;7.63;5.90;;;;;;;;;;4989028;28;20420;-69
2023/10/10 14:43:47;;;;;;;8.47;5.43;;;;;;;;;;4988990;28;20495;-68
2023/10/10 14:46:23;;;;;;;8.03;6.23;;;;;;;;;;4988986;28;20435;-69
2023/10/10 14:48:51;;;;;;;6.00;5.40;;;;;;;;;;4987845;28;20930;-68
2023/10/10 14:51:17;;;;;;;7.53;5.80;;;;;;;;;;4988904;28;20918;-68
2023/10/10 14:53:50;;;;;;;8.13;5.60;;;;;;;;;;4984352;28;20789;-68
2023/10/10 14:56:19;;;;;;;7.30;6.60;;;;;;;;;;4975611;28;20951;-69
2023/10/10 14:58:48;;;;;;;7.73;6.10;;;;;;;;;;4975791;28;20425;-69
2023/10/10 15:01:17;;;;;;;7.10;5.43;;;;;;;;;;4975752;28;20425;-69
2023/10/10 15:03:43;;;;;;;7.10;5.20;;;;;;;;;;4974281;28;20562;-69
2023/10/10 15:06:09;;;;;;;5.73;4.97;;;;;;;;;;4975826;28;20417;-69
2023/10/10 15:08:35;;;;;;;8.93;5.73;;;;;;;;;;4975434;28;20500;-69
2023/10/10 15:11:05;;;;;;;12.23;5.27;;;;;;;;;;4975479;28;20488;-68
2023/10/10 15:13:32;;;;;;;13.60;4.73;;;;;;;;;;4975494;28;20452;-69
2023/10/10 15:15:58;;;;;;;10.27;5.13;;;;;;;;;;4973746;28;20417;-69
2023/10/10 15:18:25;;;;;;;8.53;6.07;;;;;;;;;;4975416;28;20420;-68
2023/10/10 15:20:51;;;;;;;14.33;6.23;;;;;;;;;;4975254;28;20413;-69
2023/10/10 15:23:20;;;;;;;10.07;4.73;;;;;;;;;;4975152;28;20567;-70
2023/10/10 15:25:53;;;;;;;9.57;5.23;;;;;;;;;;4973882;28;20795;-69
2023/10/10 15:28:19;;;;;;;5.57;4.53;;;;;;;;;;4975584;28;20745;-69
2023/10/10 15:30:45;;;;;;;10.60;5.80;;;;;;;;;;4973999;28;20923;-69
2023/10/10 15:33:17;;;;;;;9.17;6.20;;;;;;;;;;4975378;28;20477;-70
2023/10/10 15:35:46;;;;;;;9.67;4.83;;;;;;;;;;4975223;28;20412;-69
2023/10/10 15:38:12;;;;;;;9.83;6.90;;;;;;;;;;4974099;28;20991;-69
2023/10/10 15:40:43;;;;;;;6.17;5.00;;;;;;;;;;4975337;28;20544;-69
2023/10/10 15:43:13;;;;;;;7.27;5.80;;;;;;;;;;4975115;28;20456;-70
2023/10/10 15:45:42;;;;;;;7.40;6.20;;;;;;;;;;4974854;28;20420;-70
2023/10/10 15:48:24;;;;;;;8.30;5.37;;;;;;;;;;4974757;28;20455;-70
2023/10/10 15:50:51;;;;;;;8.77;5.90;;;;;;;;;;4975067;28;20407;-69
2023/10/10 15:53:18;;;;;;;10.10;6.17;;;;;;;;;;4974984;28;20412;-69
2023/10/10 15:55:44;;;;;;;8.80;5.33;;;;;;;;;;4975517;28;20818;-68
2023/10/10 15:58:10;;;;;;;6.70;5.23;;;;;;;;;;4975003;28;20468;-68
2023/10/10 16:00:37;;;;;;;9.70;5.60;;;;;;;;;;4974975;28;20416;-69
2023/10/10 16:03:06;;;;;;;9.13;5.37;;;;;;;;;;4974104;28;21014;-70
2023/10/10 16:05:39;;;;;;;9.87;6.57;;;;;;;;;;4972919;28;20500;-69
2023/10/10 16:08:06;;;;;;;6.83;4.60;;;;;;;;;;4974957;28;20520;-68
2023/10/10 16:10:32;;;;;;;8.73;5.53;;;;;;;;;;4973912;28;20459;-69
2023/10/10 16:12:58;;;;;;;6.97;4.73;;;;;;;;;;4974416;28;20919;-71
2023/10/10 16:15:24;;;;;;;11.10;5.50;;;;;;;;;;4975488;28;20428;-69
2023/10/10 16:17:54;;;;;;;8.20;4.60;;;;;;;;;;4975081;28;20499;-69
2023/10/10 16:20:24;;;;;;;7.53;5.07;;;;;;;;;;4974588;28;20491;-68
2023/10/10 16:22:49;;;;;;;7.87;5.27;;;;;;;;;;4974429;28;20460;-70
2023/10/10 16:25:16;;;;;;;7.03;5.10;;;;;;;;;;4974240;28;20838;-68
2023/10/10 16:27:42;;;;;;;9.07;4.93;;;;;;;;;;4980162;28;20530;-69
2023/10/10 16:30:08;;;;;;;8.13;5.00;;;;;;;;;;4993589;28;20451;-69
2023/10/10 16:32:37;;;;;;;7.53;4.93;;;;;;;;;;4993660;28;20783;-68
2023/10/10 16:35:05;;;;;;;12.73;5.90;;;;;;;;;;4993312;28;21000;-69
2023/10/10 16:37:36;;;;;;;9.30;5.17;;;;;;;;;;4993165;28;20431;-69
2023/10/10 16:40:04;;;;;;;8.23;4.70;;;;;;;;;;4992152;28;20474;-69
2023/10/10 16:42:30;;;;;;;13.63;6.63;;;;;;;;;;4993148;28;20470;-68
2023/10/10 16:44:56;;;;;;;8.27;5.90;;;;;;;;;;4991756;28;20514;-69
2023/10/10 16:47:22;;;;;;;13.10;8.40;;;;;;;;;;4992949;28;20920;-69
2023/10/10 16:49:51;;;;;;;14.27;7.30;;;;;;;;;;4993108;28;20761;-69
2023/10/10 16:52:18;;;;;;;11.60;6.90;;;;;;;;;;4993172;28;20467;-69
2023/10/10 16:54:50;;;;;;;10.73;7.53;;;;;;;;;;4993496;28;20774;-69
2023/10/10 16:57:16;;;;;;;8.83;6.30;;;;;;;;;;4992802;28;20491;-70
2023/10/10 16:59:45;;;;;;;12.73;8.87;;;;;;;;;;4992992;28;20431;-69
2023/10/10 17:02:11;;;;;;;8.00;4.67;;;;;;;;;;4992587;28;21005;-70
2023/10/10 17:04:37;;;;;;;9.63;5.90;;;;;;;;;;4993635;28;20420;-70
2023/10/10 17:07:06;;;;;;;12.53;5.40;;;;;;;;;;4992528;28;20432;-70
2023/10/10 17:09:35;;;;;;;7.50;4.27;;;;;;;;;;4992871;28;20447;-71
2023/10/10 17:12:04;;;;;;;7.63;5.07;;;;;;;;;;4992822;28;20416;-70